sensor_id;sensor_type;location;lat;lon;timestamp;P1;durP1;ratioP1;P2;durP2;ratioP2
34200;SDS011;20469;55.638;37.670;2022-11-20T00:01:51;11.27;;;7.57;;
34200;SDS011;20469;55.638;37.670;2022-11-20T00:04:21;11.02;;;7.68;;
34200;SDS011;20469;55.638;37.670;2022-11-20T00:06:51;12.63;;;7.47;;
34200;SDS011;20469;55.638;37.670;2022-11-20T00:09:21;11.68;;;7.03;;
34200;SDS011;20469;55.638;37.670;2022-11-20T00:11:53;12.85;;;7.80;;
34200;SDS011;20469;55.638;37.670;2022-11-20T00:14:24;11.38;;;7.10;;
34200;SDS011;20469;55.638;37.670;2022-11-20T00:16:53;9.77;;;6.93;;
34200;SDS011;20469;55.638;37.670;2022-11-20T00:19:25;10.25;;;6.88;;
34200;SDS011;20469;55.638;37.670;2022-11-20T00:21:55;9.98;;;6.88;;
34200;SDS011;20469;55.638;37.670;2022-11-20T00:24:26;8.88;;;5.97;;
34200;SDS011;20469;55.638;37.670;2022-11-20T00:26:55;10.23;;;7.15;;
34200;SDS011;20469;55.638;37.670;2022-11-20T00:29:26;9.25;;;6.47;;
34200;SDS011;20469;55.638;37.670;2022-11-20T00:31:56;12.65;;;6.93;;
34200;SDS011;20469;55.638;37.670;2022-11-20T00:34:26;11.88;;;7.50;;
34200;SDS011;20469;55.638;37.670;2022-11-20T00:36:56;11.85;;;7.93;;
34200;SDS011;20469;55.638;37.670;2022-11-20T00:39:30;17.52;;;10.95;;
34200;SDS011;20469;55.638;37.670;2022-11-20T00:41:59;15.85;;;10.60;;
34200;SDS011;20469;55.638;37.670;2022-11-20T00:44:28;15.90;;;10.30;;
34200;SDS011;20469;55.638;37.670;2022-11-20T00:46:58;17.45;;;11.43;;
34200;SDS011;20469;55.638;37.670;2022-11-20T00:49:32;17.77;;;11.68;;
34200;SDS011;20469;55.638;37.670;2022-11-20T00:52:03;15.98;;;11.43;;
34200;SDS011;20469;55.638;37.670;2022-11-20T00:54:33;18.77;;;11.10;;
34200;SDS011;20469;55.638;37.670;2022-11-20T00:57:03;16.02;;;10.93;;
34200;SDS011;20469;55.638;37.670;2022-11-20T00:59:35;15.23;;;10.27;;
34200;SDS011;20469;55.638;37.670;2022-11-20T01:02:05;16.65;;;11.07;;
34200;SDS011;20469;55.638;37.670;2022-11-20T01:04:33;16.65;;;10.80;;
34200;SDS011;20469;55.638;37.670;2022-11-20T01:07:03;17.65;;;10.95;;
34200;SDS011;20469;55.638;37.670;2022-11-20T01:09:33;16.90;;;11.10;;
34200;SDS011;20469;55.638;37.670;2022-11-20T01:12:03;15.73;;;10.15;;
34200;SDS011;20469;55.638;37.670;2022-11-20T01:14:32;16.30;;;10.35;;
34200;SDS011;20469;55.638;37.670;2022-11-20T01:17:03;16.48;;;10.23;;
34200;SDS011;20469;55.638;37.670;2022-11-20T01:19:33;17.75;;;11.00;;
34200;SDS011;20469;55.638;37.670;2022-11-20T01:22:03;15.93;;;10.13;;
34200;SDS011;20469;55.638;37.670;2022-11-20T01:24:31;17.33;;;10.90;;
34200;SDS011;20469;55.638;37.670;2022-11-20T01:26:58;16.40;;;10.15;;
34200;SDS011;20469;55.638;37.670;2022-11-20T01:29:26;15.35;;;10.23;;
34200;SDS011;20469;55.638;37.670;2022-11-20T01:31:54;15.65;;;10.52;;
34200;SDS011;20469;55.638;37.670;2022-11-20T01:34:22;16.42;;;10.60;;
34200;SDS011;20469;55.638;37.670;2022-11-20T01:36:50;16.58;;;10.55;;
34200;SDS011;20469;55.638;37.670;2022-11-20T01:39:22;14.95;;;9.88;;
34200;SDS011;20469;55.638;37.670;2022-11-20T01:41:52;16.73;;;10.60;;
34200;SDS011;20469;55.638;37.670;2022-11-20T01:47:30;17.10;;;9.23;;
34200;SDS011;20469;55.638;37.670;2022-11-20T01:50:06;17.48;;;10.27;;
34200;SDS011;20469;55.638;37.670;2022-11-20T01:52:44;15.80;;;10.18;;
34200;SDS011;20469;55.638;37.670;2022-11-20T01:55:17;15.00;;;10.23;;
34200;SDS011;20469;55.638;37.670;2022-11-20T01:57:48;17.83;;;10.20;;
34200;SDS011;20469;55.638;37.670;2022-11-20T02:00:17;18.00;;;10.65;;
34200;SDS011;20469;55.638;37.670;2022-11-20T02:02:47;18.40;;;11.60;;
34200;SDS011;20469;55.638;37.670;2022-11-20T02:05:27;16.67;;;10.55;;
34200;SDS011;20469;55.638;37.670;2022-11-20T02:07:59;14.70;;;10.38;;
34200;SDS011;20469;55.638;37.670;2022-11-20T02:10:30;16.45;;;10.85;;
34200;SDS011;20469;55.638;37.670;2022-11-20T02:12:58;16.05;;;10.57;;
34200;SDS011;20469;55.638;37.670;2022-11-20T02:15:41;16.60;;;10.55;;
34200;SDS011;20469;55.638;37.670;2022-11-20T02:18:10;15.20;;;9.90;;
34200;SDS011;20469;55.638;37.670;2022-11-20T02:20:41;15.57;;;9.65;;
34200;SDS011;20469;55.638;37.670;2022-11-20T02:23:14;13.63;;;8.63;;
34200;SDS011;20469;55.638;37.670;2022-11-20T02:25:57;16.30;;;9.98;;
34200;SDS011;20469;55.638;37.670;2022-11-20T02:28:27;13.73;;;9.02;;
34200;SDS011;20469;55.638;37.670;2022-11-20T02:30:55;16.20;;;10.07;;
34200;SDS011;20469;55.638;37.670;2022-11-20T02:33:23;14.88;;;9.13;;
34200;SDS011;20469;55.638;37.670;2022-11-20T02:35:50;12.93;;;9.02;;
34200;SDS011;20469;55.638;37.670;2022-11-20T02:38:18;13.60;;;8.95;;
34200;SDS011;20469;55.638;37.670;2022-11-20T02:40:46;13.38;;;8.52;;
34200;SDS011;20469;55.638;37.670;2022-11-20T02:43:20;14.27;;;9.52;;
34200;SDS011;20469;55.638;37.670;2022-11-20T02:45:48;13.60;;;9.02;;
34200;SDS011;20469;55.638;37.670;2022-11-20T02:48:16;13.18;;;8.55;;
34200;SDS011;20469;55.638;37.670;2022-11-20T02:50:43;14.05;;;8.70;;
34200;SDS011;20469;55.638;37.670;2022-11-20T02:53:11;12.90;;;9.07;;
34200;SDS011;20469;55.638;37.670;2022-11-20T02:55:39;13.10;;;8.88;;
34200;SDS011;20469;55.638;37.670;2022-11-20T02:58:07;13.25;;;8.18;;
34200;SDS011;20469;55.638;37.670;2022-11-20T03:00:35;12.60;;;8.65;;
34200;SDS011;20469;55.638;37.670;2022-11-20T03:03:02;12.82;;;8.65;;
34200;SDS011;20469;55.638;37.670;2022-11-20T03:05:30;12.60;;;8.68;;
34200;SDS011;20469;55.638;37.670;2022-11-20T03:07:58;14.23;;;8.32;;
34200;SDS011;20469;55.638;37.670;2022-11-20T03:10:25;12.88;;;8.82;;
34200;SDS011;20469;55.638;37.670;2022-11-20T03:12:54;15.77;;;9.48;;
34200;SDS011;20469;55.638;37.670;2022-11-20T03:15:22;13.50;;;8.45;;
34200;SDS011;20469;55.638;37.670;2022-11-20T03:17:53;14.30;;;8.80;;
34200;SDS011;20469;55.638;37.670;2022-11-20T03:20:22;12.38;;;8.40;;
34200;SDS011;20469;55.638;37.670;2022-11-20T03:22:49;15.77;;;8.65;;
34200;SDS011;20469;55.638;37.670;2022-11-20T03:25:17;14.15;;;8.57;;
34200;SDS011;20469;55.638;37.670;2022-11-20T03:27:45;14.00;;;8.45;;
34200;SDS011;20469;55.638;37.670;2022-11-20T03:30:13;12.95;;;7.90;;
34200;SDS011;20469;55.638;37.670;2022-11-20T03:32:41;14.25;;;8.65;;
34200;SDS011;20469;55.638;37.670;2022-11-20T03:35:09;14.10;;;8.50;;
34200;SDS011;20469;55.638;37.670;2022-11-20T03:37:37;12.82;;;8.90;;
34200;SDS011;20469;55.638;37.670;2022-11-20T03:40:05;14.02;;;8.13;;
34200;SDS011;20469;55.638;37.670;2022-11-20T03:42:33;15.23;;;8.75;;
34200;SDS011;20469;55.638;37.670;2022-11-20T03:45:16;14.38;;;8.55;;
34200;SDS011;20469;55.638;37.670;2022-11-20T03:47:44;13.23;;;8.20;;
34200;SDS011;20469;55.638;37.670;2022-11-20T03:50:12;13.35;;;7.95;;
34200;SDS011;20469;55.638;37.670;2022-11-20T03:52:40;14.10;;;8.70;;
34200;SDS011;20469;55.638;37.670;2022-11-20T03:55:08;15.38;;;8.73;;
34200;SDS011;20469;55.638;37.670;2022-11-20T03:57:36;13.00;;;8.45;;
34200;SDS011;20469;55.638;37.670;2022-11-20T04:00:04;14.57;;;9.32;;
34200;SDS011;20469;55.638;37.670;2022-11-20T04:02:32;13.40;;;7.93;;
34200;SDS011;20469;55.638;37.670;2022-11-20T04:04:59;13.60;;;8.35;;
34200;SDS011;20469;55.638;37.670;2022-11-20T04:07:29;15.18;;;8.82;;
34200;SDS011;20469;55.638;37.670;2022-11-20T04:09:56;15.15;;;9.45;;
34200;SDS011;20469;55.638;37.670;2022-11-20T04:12:24;15.60;;;8.80;;
34200;SDS011;20469;55.638;37.670;2022-11-20T04:14:51;14.57;;;9.02;;
34200;SDS011;20469;55.638;37.670;2022-11-20T04:17:19;15.45;;;8.85;;
34200;SDS011;20469;55.638;37.670;2022-11-20T04:19:47;13.55;;;8.18;;
34200;SDS011;20469;55.638;37.670;2022-11-20T04:22:14;16.73;;;9.48;;
34200;SDS011;20469;55.638;37.670;2022-11-20T04:24:43;14.45;;;9.57;;
34200;SDS011;20469;55.638;37.670;2022-11-20T04:27:10;15.48;;;8.77;;
34200;SDS011;20469;55.638;37.670;2022-11-20T04:29:39;16.38;;;9.50;;
34200;SDS011;20469;55.638;37.670;2022-11-20T04:32:06;15.35;;;8.75;;
34200;SDS011;20469;55.638;37.670;2022-11-20T04:34:34;16.88;;;10.00;;
34200;SDS011;20469;55.638;37.670;2022-11-20T04:37:02;15.25;;;9.07;;
34200;SDS011;20469;55.638;37.670;2022-11-20T04:39:29;16.90;;;9.52;;
34200;SDS011;20469;55.638;37.670;2022-11-20T04:41:57;13.93;;;8.48;;
34200;SDS011;20469;55.638;37.670;2022-11-20T04:44:40;15.80;;;8.98;;
34200;SDS011;20469;55.638;37.670;2022-11-20T04:47:08;13.48;;;8.68;;
34200;SDS011;20469;55.638;37.670;2022-11-20T04:49:36;16.08;;;9.30;;
34200;SDS011;20469;55.638;37.670;2022-11-20T04:52:04;15.95;;;9.52;;
34200;SDS011;20469;55.638;37.670;2022-11-20T04:54:31;15.73;;;9.52;;
34200;SDS011;20469;55.638;37.670;2022-11-20T04:56:59;16.42;;;9.23;;
34200;SDS011;20469;55.638;37.670;2022-11-20T04:59:27;15.35;;;9.35;;
34200;SDS011;20469;55.638;37.670;2022-11-20T05:01:55;18.67;;;10.10;;
34200;SDS011;20469;55.638;37.670;2022-11-20T05:04:23;16.77;;;9.35;;
34200;SDS011;20469;55.638;37.670;2022-11-20T05:06:50;15.40;;;9.63;;
34200;SDS011;20469;55.638;37.670;2022-11-20T05:09:18;17.13;;;9.77;;
34200;SDS011;20469;55.638;37.670;2022-11-20T05:11:46;20.02;;;9.45;;
34200;SDS011;20469;55.638;37.670;2022-11-20T05:14:17;16.08;;;9.27;;
34200;SDS011;20469;55.638;37.670;2022-11-20T05:16:45;16.80;;;10.30;;
34200;SDS011;20469;55.638;37.670;2022-11-20T05:19:13;17.27;;;9.77;;
34200;SDS011;20469;55.638;37.670;2022-11-20T05:21:41;16.45;;;9.05;;
34200;SDS011;20469;55.638;37.670;2022-11-20T05:24:09;17.58;;;9.65;;
34200;SDS011;20469;55.638;37.670;2022-11-20T05:26:36;18.27;;;10.07;;
34200;SDS011;20469;55.638;37.670;2022-11-20T05:29:04;14.88;;;9.25;;
34200;SDS011;20469;55.638;37.670;2022-11-20T05:31:33;16.73;;;10.00;;
34200;SDS011;20469;55.638;37.670;2022-11-20T05:34:01;15.68;;;9.57;;
34200;SDS011;20469;55.638;37.670;2022-11-20T05:36:29;14.80;;;9.40;;
34200;SDS011;20469;55.638;37.670;2022-11-20T05:38:57;17.35;;;9.50;;
34200;SDS011;20469;55.638;37.670;2022-11-20T05:41:27;18.77;;;10.15;;
34200;SDS011;20469;55.638;37.670;2022-11-20T05:43:55;16.15;;;9.13;;
34200;SDS011;20469;55.638;37.670;2022-11-20T05:46:24;16.25;;;9.65;;
34200;SDS011;20469;55.638;37.670;2022-11-20T05:48:55;15.18;;;9.68;;
34200;SDS011;20469;55.638;37.670;2022-11-20T05:51:23;18.55;;;10.20;;
34200;SDS011;20469;55.638;37.670;2022-11-20T05:53:53;17.27;;;9.75;;
34200;SDS011;20469;55.638;37.670;2022-11-20T05:56:22;18.63;;;10.55;;
34200;SDS011;20469;55.638;37.670;2022-11-20T05:58:50;15.23;;;9.32;;
34200;SDS011;20469;55.638;37.670;2022-11-20T06:01:19;16.02;;;9.45;;
34200;SDS011;20469;55.638;37.670;2022-11-20T06:03:49;19.50;;;10.23;;
34200;SDS011;20469;55.638;37.670;2022-11-20T06:06:18;16.63;;;10.07;;
34200;SDS011;20469;55.638;37.670;2022-11-20T06:08:46;17.17;;;10.40;;
34200;SDS011;20469;55.638;37.670;2022-11-20T06:11:15;17.98;;;10.48;;
34200;SDS011;20469;55.638;37.670;2022-11-20T06:13:43;14.30;;;9.25;;
34200;SDS011;20469;55.638;37.670;2022-11-20T06:16:13;17.67;;;9.77;;
34200;SDS011;20469;55.638;37.670;2022-11-20T06:18:42;15.07;;;9.32;;
34200;SDS011;20469;55.638;37.670;2022-11-20T06:21:11;16.60;;;9.23;;
34200;SDS011;20469;55.638;37.670;2022-11-20T06:23:41;14.40;;;9.07;;
34200;SDS011;20469;55.638;37.670;2022-11-20T06:26:13;13.65;;;9.20;;
34200;SDS011;20469;55.638;37.670;2022-11-20T06:28:43;11.95;;;7.93;;
34200;SDS011;20469;55.638;37.670;2022-11-20T06:31:13;14.30;;;8.75;;
34200;SDS011;20469;55.638;37.670;2022-11-20T06:33:44;11.57;;;7.38;;
34200;SDS011;20469;55.638;37.670;2022-11-20T06:36:16;12.75;;;7.70;;
34200;SDS011;20469;55.638;37.670;2022-11-20T06:38:49;12.85;;;8.20;;
34200;SDS011;20469;55.638;37.670;2022-11-20T06:41:20;12.40;;;8.38;;
34200;SDS011;20469;55.638;37.670;2022-11-20T06:43:51;12.68;;;7.63;;
34200;SDS011;20469;55.638;37.670;2022-11-20T06:46:22;13.25;;;7.93;;
34200;SDS011;20469;55.638;37.670;2022-11-20T06:48:52;12.25;;;8.20;;
34200;SDS011;20469;55.638;37.670;2022-11-20T06:51:23;13.15;;;8.27;;
34200;SDS011;20469;55.638;37.670;2022-11-20T06:53:52;12.75;;;8.68;;
34200;SDS011;20469;55.638;37.670;2022-11-20T06:56:24;15.18;;;9.07;;
34200;SDS011;20469;55.638;37.670;2022-11-20T06:58:54;11.43;;;7.55;;
34200;SDS011;20469;55.638;37.670;2022-11-20T07:01:23;13.10;;;8.52;;
34200;SDS011;20469;55.638;37.670;2022-11-20T07:03:51;14.75;;;8.32;;
34200;SDS011;20469;55.638;37.670;2022-11-20T07:06:20;13.63;;;8.60;;
34200;SDS011;20469;55.638;37.670;2022-11-20T07:08:49;12.45;;;8.27;;
34200;SDS011;20469;55.638;37.670;2022-11-20T07:11:18;14.85;;;8.32;;
34200;SDS011;20469;55.638;37.670;2022-11-20T07:13:45;16.10;;;9.25;;
34200;SDS011;20469;55.638;37.670;2022-11-20T07:16:13;14.57;;;9.07;;
34200;SDS011;20469;55.638;37.670;2022-11-20T07:18:42;14.90;;;9.38;;
34200;SDS011;20469;55.638;37.670;2022-11-20T07:21:17;15.25;;;9.00;;
34200;SDS011;20469;55.638;37.670;2022-11-20T07:23:44;13.80;;;8.45;;
34200;SDS011;20469;55.638;37.670;2022-11-20T07:26:12;14.70;;;9.27;;
34200;SDS011;20469;55.638;37.670;2022-11-20T07:28:40;15.30;;;8.88;;
34200;SDS011;20469;55.638;37.670;2022-11-20T07:31:11;18.55;;;10.43;;
34200;SDS011;20469;55.638;37.670;2022-11-20T07:33:45;16.67;;;10.20;;
34200;SDS011;20469;55.638;37.670;2022-11-20T07:36:13;18.10;;;9.55;;
34200;SDS011;20469;55.638;37.670;2022-11-20T07:38:40;15.02;;;9.75;;
34200;SDS011;20469;55.638;37.670;2022-11-20T07:41:08;19.88;;;9.35;;
34200;SDS011;20469;55.638;37.670;2022-11-20T07:43:36;14.43;;;9.80;;
34200;SDS011;20469;55.638;37.670;2022-11-20T07:46:07;15.68;;;9.85;;
34200;SDS011;20469;55.638;37.670;2022-11-20T07:48:35;15.95;;;10.52;;
34200;SDS011;20469;55.638;37.670;2022-11-20T07:51:02;19.92;;;10.20;;
34200;SDS011;20469;55.638;37.670;2022-11-20T07:53:30;16.58;;;10.52;;
34200;SDS011;20469;55.638;37.670;2022-11-20T07:55:59;18.17;;;10.63;;
34200;SDS011;20469;55.638;37.670;2022-11-20T07:58:29;18.85;;;11.25;;
34200;SDS011;20469;55.638;37.670;2022-11-20T08:00:56;17.50;;;10.55;;
34200;SDS011;20469;55.638;37.670;2022-11-20T08:03:24;17.35;;;10.52;;
34200;SDS011;20469;55.638;37.670;2022-11-20T08:05:52;16.38;;;10.35;;
34200;SDS011;20469;55.638;37.670;2022-11-20T08:08:20;19.60;;;10.88;;
34200;SDS011;20469;55.638;37.670;2022-11-20T08:10:48;18.70;;;11.35;;
34200;SDS011;20469;55.638;37.670;2022-11-20T08:13:17;17.63;;;10.93;;
34200;SDS011;20469;55.638;37.670;2022-11-20T08:16:01;17.35;;;10.13;;
34200;SDS011;20469;55.638;37.670;2022-11-20T08:18:31;19.00;;;10.68;;
34200;SDS011;20469;55.638;37.670;2022-11-20T08:21:02;18.85;;;11.68;;
34200;SDS011;20469;55.638;37.670;2022-11-20T08:23:32;18.55;;;11.60;;
34200;SDS011;20469;55.638;37.670;2022-11-20T08:26:00;18.70;;;10.90;;
34200;SDS011;20469;55.638;37.670;2022-11-20T08:28:28;18.92;;;10.93;;
34200;SDS011;20469;55.638;37.670;2022-11-20T08:30:59;17.50;;;10.73;;
34200;SDS011;20469;55.638;37.670;2022-11-20T08:33:27;21.08;;;11.48;;
34200;SDS011;20469;55.638;37.670;2022-11-20T08:36:00;18.85;;;11.63;;
34200;SDS011;20469;55.638;37.670;2022-11-20T08:38:28;21.13;;;12.32;;
34200;SDS011;20469;55.638;37.670;2022-11-20T08:41:00;22.33;;;11.63;;
34200;SDS011;20469;55.638;37.670;2022-11-20T08:43:45;20.15;;;10.90;;
34200;SDS011;20469;55.638;37.670;2022-11-20T08:46:13;19.73;;;11.32;;
34200;SDS011;20469;55.638;37.670;2022-11-20T08:48:42;19.17;;;11.40;;
34200;SDS011;20469;55.638;37.670;2022-11-20T08:51:12;19.70;;;11.77;;
34200;SDS011;20469;55.638;37.670;2022-11-20T08:53:42;17.77;;;11.15;;
34200;SDS011;20469;55.638;37.670;2022-11-20T08:56:11;19.70;;;11.80;;
34200;SDS011;20469;55.638;37.670;2022-11-20T08:58:39;19.95;;;12.23;;
34200;SDS011;20469;55.638;37.670;2022-11-20T09:01:30;19.85;;;11.50;;
34200;SDS011;20469;55.638;37.670;2022-11-20T09:04:01;22.20;;;12.90;;
34200;SDS011;20469;55.638;37.670;2022-11-20T09:06:32;21.13;;;12.57;;
34200;SDS011;20469;55.638;37.670;2022-11-20T09:09:03;21.98;;;13.27;;
34200;SDS011;20469;55.638;37.670;2022-11-20T09:11:34;23.95;;;12.68;;
34200;SDS011;20469;55.638;37.670;2022-11-20T09:14:04;35.13;;;17.98;;
34200;SDS011;20469;55.638;37.670;2022-11-20T09:16:32;37.97;;;19.08;;
34200;SDS011;20469;55.638;37.670;2022-11-20T09:19:01;32.80;;;17.88;;
34200;SDS011;20469;55.638;37.670;2022-11-20T09:21:51;30.83;;;16.17;;
34200;SDS011;20469;55.638;37.670;2022-11-20T09:24:25;28.17;;;15.80;;
34200;SDS011;20469;55.638;37.670;2022-11-20T09:26:54;29.92;;;16.45;;
34200;SDS011;20469;55.638;37.670;2022-11-20T09:29:23;29.77;;;16.52;;
34200;SDS011;20469;55.638;37.670;2022-11-20T09:31:51;31.27;;;15.80;;
34200;SDS011;20469;55.638;37.670;2022-11-20T09:34:20;31.13;;;15.57;;
34200;SDS011;20469;55.638;37.670;2022-11-20T09:36:50;35.33;;;16.92;;
34200;SDS011;20469;55.638;37.670;2022-11-20T09:39:18;30.65;;;16.88;;
34200;SDS011;20469;55.638;37.670;2022-11-20T09:41:56;31.05;;;15.35;;
34200;SDS011;20469;55.638;37.670;2022-11-20T09:47:33;29.48;;;16.02;;
34200;SDS011;20469;55.638;37.670;2022-11-20T09:50:23;33.95;;;15.98;;
34200;SDS011;20469;55.638;37.670;2022-11-20T09:53:17;29.05;;;16.00;;
34200;SDS011;20469;55.638;37.670;2022-11-20T09:55:53;72.32;;;30.00;;
34200;SDS011;20469;55.638;37.670;2022-11-20T09:58:25;32.78;;;17.10;;
34200;SDS011;20469;55.638;37.670;2022-11-20T10:01:02;40.38;;;19.13;;
34200;SDS011;20469;55.638;37.670;2022-11-20T10:09:01;32.42;;;17.13;;
34200;SDS011;20469;55.638;37.670;2022-11-20T10:11:54;39.22;;;18.08;;
34200;SDS011;20469;55.638;37.670;2022-11-20T10:14:51;35.67;;;17.70;;
34200;SDS011;20469;55.638;37.670;2022-11-20T10:23:24;32.63;;;16.40;;
34200;SDS011;20469;55.638;37.670;2022-11-20T10:26:05;31.58;;;16.70;;
34200;SDS011;20469;55.638;37.670;2022-11-20T10:28:52;31.48;;;17.15;;
34200;SDS011;20469;55.638;37.670;2022-11-20T10:31:39;29.92;;;15.65;;
34200;SDS011;20469;55.638;37.670;2022-11-20T10:36:58;30.67;;;16.40;;
34200;SDS011;20469;55.638;37.670;2022-11-20T10:39:38;36.10;;;16.77;;
34200;SDS011;20469;55.638;37.670;2022-11-20T10:42:17;33.22;;;17.10;;
34200;SDS011;20469;55.638;37.670;2022-11-20T10:45:02;30.08;;;16.23;;
34200;SDS011;20469;55.638;37.670;2022-11-20T10:47:48;28.08;;;16.30;;
34200;SDS011;20469;55.638;37.670;2022-11-20T10:50:19;27.90;;;15.65;;
34200;SDS011;20469;55.638;37.670;2022-11-20T10:52:52;29.98;;;15.88;;
34200;SDS011;20469;55.638;37.670;2022-11-20T10:55:45;27.90;;;15.45;;
34200;SDS011;20469;55.638;37.670;2022-11-20T10:58:24;28.48;;;15.38;;
34200;SDS011;20469;55.638;37.670;2022-11-20T11:01:15;30.08;;;16.40;;
34200;SDS011;20469;55.638;37.670;2022-11-20T11:03:44;30.40;;;15.10;;
34200;SDS011;20469;55.638;37.670;2022-11-20T11:09:10;24.95;;;14.23;;
34200;SDS011;20469;55.638;37.670;2022-11-20T11:11:42;25.80;;;14.15;;
34200;SDS011;20469;55.638;37.670;2022-11-20T11:14:13;27.52;;;13.80;;
34200;SDS011;20469;55.638;37.670;2022-11-20T11:19:22;25.38;;;13.18;;
34200;SDS011;20469;55.638;37.670;2022-11-20T11:21:52;21.40;;;11.98;;
34200;SDS011;20469;55.638;37.670;2022-11-20T11:24:25;24.48;;;13.60;;
34200;SDS011;20469;55.638;37.670;2022-11-20T11:27:13;23.35;;;13.25;;
34200;SDS011;20469;55.638;37.670;2022-11-20T11:29:45;21.17;;;11.23;;
34200;SDS011;20469;55.638;37.670;2022-11-20T11:32:15;20.67;;;11.68;;
34200;SDS011;20469;55.638;37.670;2022-11-20T11:37:37;21.10;;;12.48;;
34200;SDS011;20469;55.638;37.670;2022-11-20T11:40:09;18.98;;;11.32;;
34200;SDS011;20469;55.638;37.670;2022-11-20T11:42:54;18.00;;;11.40;;
34200;SDS011;20469;55.638;37.670;2022-11-20T11:45:25;18.83;;;10.65;;
34200;SDS011;20469;55.638;37.670;2022-11-20T11:47:54;19.00;;;10.52;;
34200;SDS011;20469;55.638;37.670;2022-11-20T11:50:28;17.60;;;10.48;;
34200;SDS011;20469;55.638;37.670;2022-11-20T11:53:03;20.15;;;11.40;;
34200;SDS011;20469;55.638;37.670;2022-11-20T11:55:44;17.92;;;10.90;;
34200;SDS011;20469;55.638;37.670;2022-11-20T11:58:38;19.23;;;11.55;;
34200;SDS011;20469;55.638;37.670;2022-11-20T12:01:36;20.50;;;11.85;;
34200;SDS011;20469;55.638;37.670;2022-11-20T12:07:15;15.57;;;10.63;;
34200;SDS011;20469;55.638;37.670;2022-11-20T12:10:19;18.05;;;10.73;;
34200;SDS011;20469;55.638;37.670;2022-11-20T12:12:51;18.98;;;11.32;;
34200;SDS011;20469;55.638;37.670;2022-11-20T12:15:34;17.65;;;10.88;;
34200;SDS011;20469;55.638;37.670;2022-11-20T12:18:06;18.05;;;11.02;;
34200;SDS011;20469;55.638;37.670;2022-11-20T12:20:42;17.38;;;10.48;;
34200;SDS011;20469;55.638;37.670;2022-11-20T12:23:27;20.30;;;11.50;;
34200;SDS011;20469;55.638;37.670;2022-11-20T12:26:04;18.30;;;11.27;;
34200;SDS011;20469;55.638;37.670;2022-11-20T12:28:44;15.75;;;10.43;;
34200;SDS011;20469;55.638;37.670;2022-11-20T12:31:31;20.23;;;11.10;;
34200;SDS011;20469;55.638;37.670;2022-11-20T12:37:29;15.55;;;9.38;;
34200;SDS011;20469;55.638;37.670;2022-11-20T12:43:19;19.00;;;10.23;;
34200;SDS011;20469;55.638;37.670;2022-11-20T12:46:16;17.30;;;10.02;;
34200;SDS011;20469;55.638;37.670;2022-11-20T12:48:58;17.02;;;10.80;;
34200;SDS011;20469;55.638;37.670;2022-11-20T12:51:49;14.57;;;9.68;;
34200;SDS011;20469;55.638;37.670;2022-11-20T12:54:39;15.68;;;9.65;;
34200;SDS011;20469;55.638;37.670;2022-11-20T12:57:20;14.68;;;10.07;;
34200;SDS011;20469;55.638;37.670;2022-11-20T13:00:08;21.25;;;10.25;;
34200;SDS011;20469;55.638;37.670;2022-11-20T13:05:51;28.27;;;16.33;;
34200;SDS011;20469;55.638;37.670;2022-11-20T13:08:45;14.88;;;9.45;;
34200;SDS011;20469;55.638;37.670;2022-11-20T13:11:27;18.35;;;10.90;;
34200;SDS011;20469;55.638;37.670;2022-11-20T13:14:07;17.85;;;10.82;;
34200;SDS011;20469;55.638;37.670;2022-11-20T13:16:49;18.15;;;10.07;;
34200;SDS011;20469;55.638;37.670;2022-11-20T13:19:30;18.15;;;9.93;;
34200;SDS011;20469;55.638;37.670;2022-11-20T13:21:58;18.75;;;11.10;;
34200;SDS011;20469;55.638;37.670;2022-11-20T13:24:30;17.45;;;11.20;;
34200;SDS011;20469;55.638;37.670;2022-11-20T13:26:59;24.13;;;14.80;;
34200;SDS011;20469;55.638;37.670;2022-11-20T13:29:31;17.75;;;10.25;;
34200;SDS011;20469;55.638;37.670;2022-11-20T13:34:56;17.10;;;11.13;;
34200;SDS011;20469;55.638;37.670;2022-11-20T13:37:31;18.55;;;10.95;;
34200;SDS011;20469;55.638;37.670;2022-11-20T13:40:11;18.70;;;11.77;;
34200;SDS011;20469;55.638;37.670;2022-11-20T13:42:44;20.00;;;12.18;;
34200;SDS011;20469;55.638;37.670;2022-11-20T13:45:23;17.85;;;10.90;;
34200;SDS011;20469;55.638;37.670;2022-11-20T13:47:56;19.65;;;12.20;;
34200;SDS011;20469;55.638;37.670;2022-11-20T13:53:36;17.55;;;10.98;;
34200;SDS011;20469;55.638;37.670;2022-11-20T13:56:24;17.90;;;10.93;;
34200;SDS011;20469;55.638;37.670;2022-11-20T13:59:20;18.83;;;11.05;;
34200;SDS011;20469;55.638;37.670;2022-11-20T14:02:10;17.38;;;10.88;;
34200;SDS011;20469;55.638;37.670;2022-11-20T14:04:47;16.92;;;10.77;;
34200;SDS011;20469;55.638;37.670;2022-11-20T14:07:18;17.98;;;11.30;;
34200;SDS011;20469;55.638;37.670;2022-11-20T14:09:52;16.55;;;10.98;;
34200;SDS011;20469;55.638;37.670;2022-11-20T14:12:29;18.73;;;10.48;;
34200;SDS011;20469;55.638;37.670;2022-11-20T14:15:01;21.48;;;11.50;;
34200;SDS011;20469;55.638;37.670;2022-11-20T14:17:33;16.48;;;10.45;;
34200;SDS011;20469;55.638;37.670;2022-11-20T14:20:05;16.95;;;9.88;;
34200;SDS011;20469;55.638;37.670;2022-11-20T14:22:51;16.30;;;10.05;;
34200;SDS011;20469;55.638;37.670;2022-11-20T14:25:26;15.68;;;10.15;;
34200;SDS011;20469;55.638;37.670;2022-11-20T14:27:58;14.85;;;9.80;;
34200;SDS011;20469;55.638;37.670;2022-11-20T14:30:29;13.90;;;10.05;;
34200;SDS011;20469;55.638;37.670;2022-11-20T14:33:21;17.50;;;10.43;;
34200;SDS011;20469;55.638;37.670;2022-11-20T14:35:55;16.63;;;9.95;;
34200;SDS011;20469;55.638;37.670;2022-11-20T14:41:07;17.75;;;10.38;;
34200;SDS011;20469;55.638;37.670;2022-11-20T14:43:45;15.32;;;9.60;;
34200;SDS011;20469;55.638;37.670;2022-11-20T14:46:14;15.02;;;10.10;;
34200;SDS011;20469;55.638;37.670;2022-11-20T14:48:50;16.55;;;10.35;;
34200;SDS011;20469;55.638;37.670;2022-11-20T14:51:26;17.10;;;10.57;;
34200;SDS011;20469;55.638;37.670;2022-11-20T14:59:34;17.05;;;10.57;;
34200;SDS011;20469;55.638;37.670;2022-11-20T15:02:05;16.77;;;10.70;;
34200;SDS011;20469;55.638;37.670;2022-11-20T15:07:32;17.33;;;10.80;;
34200;SDS011;20469;55.638;37.670;2022-11-20T15:10:03;16.85;;;11.05;;
34200;SDS011;20469;55.638;37.670;2022-11-20T15:12:34;17.65;;;11.13;;
34200;SDS011;20469;55.638;37.670;2022-11-20T15:15:05;19.17;;;11.40;;
34200;SDS011;20469;55.638;37.670;2022-11-20T15:17:38;19.88;;;11.65;;
34200;SDS011;20469;55.638;37.670;2022-11-20T15:20:13;19.02;;;10.93;;
34200;SDS011;20469;55.638;37.670;2022-11-20T15:22:43;16.88;;;10.57;;
34200;SDS011;20469;55.638;37.670;2022-11-20T15:25:13;19.23;;;11.10;;
34200;SDS011;20469;55.638;37.670;2022-11-20T15:27:41;17.05;;;10.63;;
34200;SDS011;20469;55.638;37.670;2022-11-20T15:30:15;17.30;;;10.95;;
34200;SDS011;20469;55.638;37.670;2022-11-20T15:32:46;18.40;;;11.23;;
34200;SDS011;20469;55.638;37.670;2022-11-20T15:35:14;18.10;;;11.02;;
34200;SDS011;20469;55.638;37.670;2022-11-20T15:37:44;23.67;;;11.35;;
34200;SDS011;20469;55.638;37.670;2022-11-20T15:40:12;19.20;;;11.30;;
34200;SDS011;20469;55.638;37.670;2022-11-20T15:42:40;18.33;;;10.45;;